EKAH Airport Information

Runway Information
Runway 10L Length 9111 ft width 75 ft
Elevation 79 ft Threshold 0 ft Heading 100
Runway 28R Length 9111 ft Width 75 ft
Elevation 78 ft Threshold 0 ft Heading 280
Runway 10R Length 8865 ft width 148 ft
Elevation 81 ft Threshold 0 ft Heading 100
Runway 28L Length 8865 ft Width 148 ft
Elevation 75 ft Threshold 0 ft Heading 280
Airport Frequencies
Type APP Name APP Frequency 119.275 MHZ
Type MISC Name HANDLING Frequency 130.225 MHZ
Type MISC Name AIRPORT OF Frequency 130.225 MHZ
Type TWR Name TWR Frequency 118.525 MHZ
Airport Navaids
Type NDB Name Aarhus Frequency 324 KHZ
Type NDB Name Aarhus Frequency 374 KHZ
Airport Weather Information & NOTAM
ADDS - METARS form results

(2016 UTC 22 July 2018)
 
METAR text: EKAH 221950Z AUTO 30006KT 9999NDV NCD 20/13 Q1013
Conditions at: EKAH (TIRSTRUP (CIV/MI, DK) observed 1950 UTC 22 July 2018
Temperature: 20.0°C (68°F)
Dewpoint: 13.0°C (55°F) [RH = 64%]
Pressure (altimeter): 29.91 inches Hg (1013.0 mb)
Winds: from the WNW (300 degrees) at 7 MPH (6 knots; 3.1 m/s)
Visibility: missing
Ceiling: at least 12,000 feet AGL
Clouds: sky clear below 12,000 feet AGL
Weather: no significant weather observed at this time

METAR text: EKAH 221920Z AUTO 30008KT 9999NDV NCD 21/13 Q1013
Conditions at: EKAH (TIRSTRUP (CIV/MI, DK) observed 1920 UTC 22 July 2018
Temperature: 21.0°C (70°F)
Dewpoint: 13.0°C (55°F) [RH = 60%]
Pressure (altimeter): 29.91 inches Hg (1013.0 mb)
Winds: from the WNW (300 degrees) at 9 MPH (8 knots; 4.2 m/s)
Visibility: missing
Ceiling: at least 12,000 feet AGL
Clouds: sky clear below 12,000 feet AGL
Weather: no significant weather observed at this time